Time;durP1;ratioP1;P1;durP2;ratioP2;P2;SDS_P1;SDS_P2;PMS_P1;PMS_P2;Temp;Humidity;BMP_temperature;BMP_pressure;BME280_temperature;BME280_humidity;BME280_pressure;Samples;Min_cycle;Max_cycle;Signal;HPM_P1;HPM_P2
2022/06/23 00:01:23;;;;;;;11.18;8.27;;;;;;;17.77;66.46;101164.28;5037822;28;20071;-65
2022/06/23 00:03:54;;;;;;;11.18;8.50;;;;;;;17.66;67.14;101166.38;5042191;28;20040;-63
2022/06/23 00:06:52;;;;;;;11.73;8.02;;;;;;;17.90;65.03;101169.06;5043889;28;20033;-65
2022/06/23 00:09:36;;;;;;;12.20;8.38;;;;;;;17.68;66.86;101169.66;5030805;28;20036;-68
2022/06/23 00:12:27;;;;;;;13.93;8.70;;;;;;;17.74;66.07;101158.56;5039900;28;20021;-64
2022/06/23 00:15:00;;;;;;;13.20;8.55;;;;;;;17.62;67.15;101159.81;5044343;28;20079;-64
2022/06/23 00:17:31;;;;;;;12.15;8.38;;;;;;;17.69;67.46;101163.44;5043217;28;20029;-64
2022/06/23 00:20:01;;;;;;;12.35;8.80;;;;;;;17.52;68.19;101155.53;5036916;28;20033;-64
2022/06/23 00:22:30;;;;;;;12.80;8.70;;;;;;;17.64;67.42;101153.41;5039743;28;20724;-64
2022/06/23 00:24:59;;;;;;;12.70;8.73;;;;;;;17.65;67.55;101149.81;5037710;28;20028;-65
2022/06/23 00:27:31;;;;;;;12.70;8.80;;;;;;;17.54;69.26;101142.25;5042322;28;20036;-66
2022/06/23 00:30:02;;;;;;;13.43;9.25;;;;;;;17.45;69.81;101143.25;5040347;28;20033;-65
2022/06/23 00:32:29;;;;;;;12.85;9.50;;;;;;;17.45;70.08;101141.44;5043694;28;20562;-64
2022/06/23 00:35:00;;;;;;;15.45;9.18;;;;;;;17.56;69.41;101139.50;5035108;28;20487;-68
2022/06/23 00:37:26;;;;;;;13.07;9.73;;;;;;;17.51;69.76;101143.41;5042148;28;20121;-66
2022/06/23 00:39:59;;;;;;;15.27;9.60;;;;;;;17.35;70.48;101138.16;5040222;28;20032;-63
2022/06/23 00:42:32;;;;;;;14.30;9.82;;;;;;;17.48;70.46;101133.25;5040162;28;20028;-65
2022/06/23 00:45:13;;;;;;;13.57;10.10;;;;;;;17.42;70.29;101122.59;5042106;28;20067;-65
2022/06/23 00:47:49;;;;;;;15.75;10.00;;;;;;;17.30;71.26;101124.69;5037768;28;20095;-64
2022/06/23 00:50:29;;;;;;;13.68;10.27;;;;;;;17.35;70.41;101127.66;5036196;28;20115;-67
2022/06/23 00:53:01;;;;;;;12.73;10.13;;;;;;;17.38;70.78;101132.59;5026326;28;20042;-66
2022/06/23 00:55:45;;;;;;;13.77;9.77;;;;;;;17.46;70.33;101126.53;5043300;28;20420;-65
2022/06/23 00:58:37;;;;;;;14.40;9.93;;;;;;;17.42;70.59;101127.81;5038838;28;20131;-67
2022/06/23 01:01:12;;;;;;;15.10;9.65;;;;;;;17.25;72.11;101132.22;5038239;28;20029;-67
2022/06/23 01:03:47;;;;;;;14.15;9.77;;;;;;;17.28;71.47;101137.16;5041845;28;20045;-64
2022/06/23 01:06:29;;;;;;;15.88;9.75;;;;;;;17.31;70.59;101126.34;5044646;28;20024;-65
2022/06/23 01:09:04;;;;;;;14.68;10.20;;;;;;;17.28;71.18;101137.16;5044955;28;20029;-65
2022/06/23 01:11:29;;;;;;;16.65;10.68;;;;;;;17.15;71.65;101142.06;5045728;28;20036;-66
2022/06/23 01:14:03;;;;;;;14.82;10.43;;;;;;;17.23;71.49;101139.44;5046374;28;20024;-65
2022/06/23 01:16:38;;;;;;;13.52;10.27;;;;;;;17.19;71.54;101148.59;5038836;28;20108;-66
2022/06/23 01:19:09;;;;;;;15.13;10.80;;;;;;;17.16;71.66;101134.03;5038615;28;20079;-66
2022/06/23 01:21:43;;;;;;;14.00;10.07;;;;;;;17.03;71.98;101132.81;5044392;28;20036;-67
2022/06/23 01:24:24;;;;;;;14.13;10.00;;;;;;;17.04;71.93;101124.00;5040624;28;20548;-65
2022/06/23 01:26:56;;;;;;;14.48;10.48;;;;;;;17.05;72.05;101130.88;5033490;28;20045;-63
2022/06/23 01:29:33;;;;;;;13.20;10.57;;;;;;;17.03;71.56;101127.59;5036178;28;20529;-67
2022/06/23 01:32:17;;;;;;;12.65;10.60;;;;;;;17.01;72.25;101121.69;5039798;28;20077;-65
2022/06/23 01:34:46;;;;;;;12.30;10.35;;;;;;;16.91;72.68;101125.25;5043394;28;20021;-64
2022/06/23 01:37:25;;;;;;;14.05;11.13;;;;;;;16.91;72.98;101125.25;5038798;28;20419;-65
2022/06/23 01:40:09;;;;;;;14.90;10.38;;;;;;;16.92;72.07;101132.16;5035713;28;20021;-64
2022/06/23 01:42:46;;;;;;;15.18;11.13;;;;;;;16.79;72.99;101123.91;5034143;28;20047;-64
2022/06/23 01:45:26;;;;;;;14.18;11.02;;;;;;;16.83;72.71;101112.16;5035646;28;20469;-69
2022/06/23 01:48:16;;;;;;;13.82;11.45;;;;;;;16.86;72.94;101116.22;5031003;28;20040;-64
2022/06/23 01:50:53;;;;;;;13.43;10.40;;;;;;;16.81;73.01;101113.31;5031297;28;20038;-64
2022/06/23 01:53:26;;;;;;;15.82;11.23;;;;;;;16.74;73.03;101118.31;5037876;28;20392;-63
2022/06/23 01:55:55;;;;;;;14.85;10.27;;;;;;;16.72;72.75;101115.06;5039770;28;20025;-65
2022/06/23 01:58:25;;;;;;;16.73;11.35;;;;;;;16.75;72.37;101104.28;5043093;28;20477;-66
2022/06/23 02:00:55;;;;;;;14.93;10.60;;;;;;;16.56;73.32;101105.28;5042059;28;20107;-67
2022/06/23 02:03:30;;;;;;;15.30;11.07;;;;;;;16.66;72.63;101113.03;5040512;28;20123;-63
2022/06/23 02:06:04;;;;;;;12.13;10.82;;;;;;;16.52;73.68;101095.31;5044615;28;20028;-64
2022/06/23 02:08:54;;;;;;;13.90;10.90;;;;;;;16.65;72.76;101119.25;5031863;28;20517;-63
2022/06/23 02:11:45;;;;;;;13.95;10.52;;;;;;;16.63;72.80;101110.72;5033357;28;20036;-64
2022/06/23 02:14:38;;;;;;;14.48;10.60;;;;;;;16.55;72.93;101118.56;5029630;28;20029;-70
2022/06/23 02:17:18;;;;;;;15.57;10.82;;;;;;;16.57;72.65;101119.19;5041532;28;20104;-64
2022/06/23 02:19:49;;;;;;;13.60;10.90;;;;;;;16.46;73.45;101115.09;5039961;28;20037;-63
2022/06/23 02:22:40;;;;;;;14.18;11.88;;;;;;;16.49;73.20;101119.19;5038800;28;20542;-63
2022/06/23 02:25:24;;;;;;;14.13;10.80;;;;;;;16.37;73.63;101111.59;5031935;28;20377;-64
2022/06/23 02:27:59;;;;;;;15.38;11.32;;;;;;;16.39;73.27;101114.88;5033968;28;20033;-64
2022/06/23 02:30:53;;;;;;;14.57;11.77;;;;;;;16.46;72.26;101126.38;5043420;28;20061;-65
2022/06/23 02:33:28;;;;;;;14.48;11.07;;;;;;;16.34;73.07;101114.50;5039108;28;20032;-62
2022/06/23 02:36:01;;;;;;;13.52;11.55;;;;;;;16.29;73.54;101119.41;5035338;28;20040;-65
2022/06/23 02:38:30;;;;;;;14.25;11.73;;;;;;;16.24;73.40;101115.63;5027974;28;20094;-68
2022/06/23 02:41:11;;;;;;;13.77;11.40;;;;;;;16.25;73.28;101118.06;5043887;28;20400;-63
2022/06/23 02:43:47;;;;;;;16.80;12.10;;;;;;;16.18;73.88;101117.06;5037875;28;20033;-63
2022/06/23 02:46:32;;;;;;;15.02;11.70;;;;;;;16.27;73.12;101110.88;5043515;28;20029;-63
2022/06/23 02:49:03;;;;;;;14.30;11.57;;;;;;;16.12;74.05;101112.44;5040012;28;20033;-62
2022/06/23 02:52:06;;;;;;;14.63;11.55;;;;;;;16.14;73.65;101105.25;5036524;28;20568;-65
2022/06/23 02:55:15;;;;;;;14.00;11.20;;;;;;;16.09;73.33;101097.03;5045489;28;20100;-62
2022/06/23 02:58:04;;;;;;;16.00;12.20;;;;;;;16.17;73.23;101102.31;5046618;28;20064;-63
2022/06/23 03:00:44;;;;;;;13.23;11.73;;;;;;;16.02;74.17;101090.78;5037775;28;20025;-63
2022/06/23 03:03:27;;;;;;;14.35;11.75;;;;;;;16.09;74.37;101097.03;5031692;28;20512;-66
2022/06/23 03:06:06;;;;;;;14.85;12.13;;;;;;;16.03;74.92;101097.66;5045065;28;20433;-64
2022/06/23 03:08:45;;;;;;;15.65;11.80;;;;;;;16.06;74.83;101092.13;5033312;28;20032;-64
2022/06/23 03:11:51;;;;;;;14.55;12.40;;;;;;;15.92;75.09;101096.94;5038731;28;20021;-63
2022/06/23 03:14:07;;;;;;;15.52;11.65;;;;;;;15.85;75.57;101074.97;5040670;28;20102;-63
2022/06/23 03:16:43;;;;;;;16.30;12.15;;;;;;;15.98;74.62;101078.97;5036779;28;20029;-66
2022/06/23 03:19:14;;;;;;;13.95;11.73;;;;;;;15.98;75.03;101074.56;5045297;28;20029;-63
2022/06/23 03:21:42;;;;;;;14.82;12.57;;;;;;;15.84;75.48;101081.19;5047287;28;20056;-68
2022/06/23 03:24:22;;;;;;;15.70;12.60;;;;;;;15.89;74.83;101081.56;5034362;28;20503;-62
2022/06/23 03:26:59;;;;;;;16.45;12.15;;;;;;;15.82;75.06;101074.47;5029779;28;20040;-64
2022/06/23 03:29:38;;;;;;;14.85;12.35;;;;;;;15.84;75.33;101083.81;5037909;28;20112;-62
2022/06/23 03:32:33;;;;;;;14.77;13.02;;;;;;;15.87;75.00;101078.25;5040546;28;20060;-64
2022/06/23 03:35:20;;;;;;;15.95;12.57;;;;;;;15.75;75.39;101079.47;5034244;28;20045;-64
2022/06/23 03:37:55;;;;;;;16.05;13.02;;;;;;;15.82;75.45;101077.88;5041579;28;20464;-63
2022/06/23 03:43:31;;;;;;;18.70;12.57;;;;;;;15.73;75.93;101078.81;5044041;28;20123;-64
2022/06/23 03:46:05;;;;;;;14.07;12.45;;;;;;;15.81;74.92;101080.66;5031348;28;20033;-63
2022/06/23 03:48:39;;;;;;;18.67;12.70;;;;;;;15.59;75.44;101059.22;5039473;28;20053;-64
2022/06/23 03:51:28;;;;;;;14.95;12.40;;;;;;;15.76;75.41;101075.88;5027547;28;20372;-63
2022/06/23 03:54:18;;;;;;;15.05;12.23;;;;;;;15.75;74.85;101065.59;5031124;28;20043;-64
2022/06/23 03:56:52;;;;;;;15.05;12.25;;;;;;;15.73;75.83;101075.38;5035839;28;20457;-63
2022/06/23 03:59:24;;;;;;;15.00;12.45;;;;;;;15.81;75.22;101088.50;5030879;28;20018;-63
2022/06/23 04:02:04;;;;;;;15.75;12.82;;;;;;;15.78;74.93;101079.19;5039942;28;20795;-63
2022/06/23 04:04:39;;;;;;;15.90;12.63;;;;;;;15.69;75.60;101072.25;5030566;28;20719;-63
2022/06/23 04:07:31;;;;;;;15.57;12.95;;;;;;;15.68;75.28;101068.00;5038154;28;20475;-65
2022/06/23 04:10:01;;;;;;;16.25;12.05;;;;;;;15.61;76.58;101061.72;5036118;28;20029;-64
2022/06/23 04:12:29;;;;;;;16.30;13.40;;;;;;;15.68;75.63;101061.94;5027699;28;20029;-63
2022/06/23 04:15:08;;;;;;;16.77;13.45;;;;;;;15.67;75.57;101066.34;5035807;28;20029;-64
2022/06/23 04:17:55;;;;;;;17.30;12.25;;;;;;;15.56;75.30;101064.78;5035041;28;20111;-63
2022/06/23 04:20:29;;;;;;;14.73;13.23;;;;;;;15.48;75.47;101050.81;5043025;28;20373;-64
2022/06/23 04:23:03;;;;;;;14.57;12.50;;;;;;;15.53;75.68;101069.47;5043869;28;20123;-63
2022/06/23 04:25:39;;;;;;;15.13;12.82;;;;;;;15.55;75.59;101067.53;5038839;28;20037;-64
2022/06/23 04:28:06;;;;;;;15.20;12.32;;;;;;;15.50;75.93;101064.56;5035569;28;20032;-67
2022/06/23 04:30:36;;;;;;;15.02;12.70;;;;;;;15.61;75.44;101072.16;5034971;28;20418;-62
2022/06/23 04:33:05;;;;;;;14.32;12.40;;;;;;;15.54;76.00;101071.09;5031782;28;20493;-64
2022/06/23 04:35:36;;;;;;;14.15;12.05;;;;;;;15.69;75.22;101074.03;5028135;28;20156;-66
2022/06/23 04:38:10;;;;;;;15.23;12.50;;;;;;;15.70;75.58;101071.25;5043247;28;20455;-67
2022/06/23 04:40:41;;;;;;;13.80;12.30;;;;;;;15.74;75.34;101077.03;5025125;28;20033;-63
2022/06/23 04:43:18;;;;;;;12.80;11.45;;;;;;;15.81;75.25;101081.47;5043648;28;20071;-64
2022/06/23 04:46:21;;;;;;;13.27;11.88;;;;;;;15.84;74.48;101073.34;5035360;28;20036;-65
2022/06/23 04:48:56;;;;;;;14.90;12.10;;;;;;;15.83;74.44;101074.31;5036568;28;20105;-64
2022/06/23 04:51:32;;;;;;;16.55;12.90;;;;;;;15.87;74.04;101070.41;5033894;28;20029;-63
2022/06/23 04:54:20;;;;;;;17.63;12.10;;;;;;;15.90;74.34;101077.16;5034231;28;20034;-65
2022/06/23 04:56:45;;;;;;;13.68;12.02;;;;;;;15.92;74.67;101081.22;5034373;28;20029;-63
2022/06/23 04:59:26;;;;;;;15.98;12.60;;;;;;;15.95;74.50;101079.31;5043456;28;20029;-63
2022/06/23 05:01:55;;;;;;;16.27;12.32;;;;;;;16.03;74.20;101087.19;5032717;28;20056;-63
2022/06/23 05:04:25;;;;;;;14.48;12.60;;;;;;;16.04;73.75;101083.59;5043730;28;20086;-63
2022/06/23 05:06:54;;;;;;;14.95;12.05;;;;;;;16.06;74.12;101085.09;5032723;28;20025;-64
2022/06/23 05:09:23;;;;;;;;;;;;;;;16.20;72.91;101081.06;5026480;28;20461;-64
2022/06/23 05:11:52;;;;;;;16.75;11.98;;;;;;;16.17;73.11;101070.91;5038688;28;19917;-65
2022/06/23 05:14:37;;;;;;;13.85;11.57;;;;;;;16.14;73.47;101079.91;5030901;28;20477;-63
2022/06/23 05:17:27;;;;;;;15.38;12.05;;;;;;;16.22;73.22;101071.25;5026658;28;20036;-66
2022/06/23 05:19:57;;;;;;;13.40;11.77;;;;;;;16.21;73.11;101077.47;5040640;28;20452;-64
2022/06/23 05:22:27;;;;;;;14.23;11.57;;;;;;;16.21;73.34;101074.84;5039843;28;20478;-63
2022/06/23 05:24:55;;;;;;;15.07;12.25;;;;;;;16.32;73.35;101076.38;5045065;28;20025;-64
2022/06/23 05:27:29;;;;;;;15.48;12.90;;;;;;;16.32;73.23;101082.44;5042539;28;20155;-64
2022/06/23 05:30:28;;;;;;;15.18;11.85;;;;;;;16.36;72.58;101073.31;5041640;28;20071;-66
2022/06/23 05:33:01;;;;;;;14.32;12.48;;;;;;;16.42;73.40;101067.44;5040454;28;20114;-63
2022/06/23 05:35:38;;;;;;;15.63;12.85;;;;;;;16.42;72.88;101080.53;5040827;28;20043;-63
2022/06/23 05:38:09;;;;;;;14.30;11.85;;;;;;;16.50;72.38;101089.41;5033956;28;20026;-63
2022/06/23 05:40:39;;;;;;;14.77;12.10;;;;;;;16.53;72.22;101083.84;5028881;28;20029;-67
2022/06/23 05:43:04;;;;;;;15.32;11.63;;;;;;;16.63;71.55;101079.28;5036156;28;20024;-63
2022/06/23 05:45:38;;;;;;;14.52;11.80;;;;;;;16.63;71.83;101084.53;5039675;28;20036;-64
2022/06/23 05:48:06;;;;;;;14.80;12.50;;;;;;;16.71;71.40;101082.00;5026984;28;20025;-63
2022/06/23 05:50:46;;;;;;;13.38;11.98;;;;;;;16.80;71.11;101091.50;5029705;28;20033;-63
2022/06/23 05:53:38;;;;;;;14.05;11.95;;;;;;;16.87;71.03;101096.94;5041396;28;20055;-63
2022/06/23 05:56:35;;;;;;;14.52;11.80;;;;;;;16.94;70.98;101077.78;5030693;28;20039;-63
2022/06/23 05:59:17;;;;;;;13.15;11.25;;;;;;;17.07;70.74;101086.97;5045004;28;20103;-63
2022/06/23 06:01:53;;;;;;;14.23;11.98;;;;;;;17.10;70.20;101076.19;5037268;28;20116;-63
2022/06/23 06:04:25;;;;;;;14.98;11.93;;;;;;;17.19;69.68;101067.34;5025535;28;20033;-63
2022/06/23 06:06:50;;;;;;;13.68;11.00;;;;;;;17.39;69.74;101081.78;5034571;28;20114;-62
2022/06/23 06:09:35;;;;;;;14.15;11.00;;;;;;;17.44;69.35;101076.88;5048388;28;20457;-63
2022/06/23 06:12:07;;;;;;;14.18;11.05;;;;;;;17.57;68.73;101072.94;5036967;28;20025;-67
2022/06/23 06:14:41;;;;;;;14.57;10.82;;;;;;;17.62;68.53;101060.16;5039572;28;20048;-63
2022/06/23 06:17:07;;;;;;;16.35;10.77;;;;;;;17.64;67.51;101055.56;5042885;28;20381;-64
2022/06/23 06:19:34;;;;;;;12.68;10.93;;;;;;;17.72;67.52;101055.56;5044305;28;20492;-63
2022/06/23 06:22:19;;;;;;;13.02;10.63;;;;;;;17.87;67.49;101064.41;5048062;28;20024;-65
2022/06/23 06:24:50;;;;;;;13.50;10.90;;;;;;;17.94;67.28;101065.38;5032661;28;20040;-63
2022/06/23 06:27:16;;;;;;;15.45;10.07;;;;;;;18.09;66.89;101072.56;5042562;28;20063;-64
2022/06/23 06:29:43;;;;;;;12.80;9.80;;;;;;;18.20;66.05;101074.84;5041776;28;20035;-63
2022/06/23 06:32:17;;;;;;;12.23;10.10;;;;;;;18.24;65.76;101071.72;5040199;28;20499;-65
2022/06/23 06:34:48;;;;;;;12.65;9.88;;;;;;;18.36;65.35;101074.78;5054847;28;20111;-63
2022/06/23 06:37:15;;;;;;;14.05;9.43;;;;;;;18.44;65.05;101072.13;5034330;28;20037;-69
2022/06/23 06:39:51;;;;;;;11.82;9.43;;;;;;;18.55;65.11;101073.56;5030272;28;20112;-63
2022/06/23 06:42:22;;;;;;;12.45;8.82;;;;;;;18.67;65.01;101066.09;5035420;28;20064;-64
2022/06/23 06:44:50;;;;;;;12.25;8.60;;;;;;;18.78;63.49;101071.81;5031422;28;20025;-66
2022/06/23 06:47:28;;;;;;;10.73;8.20;;;;;;;18.93;64.21;101068.47;5039463;28;20037;-66
2022/06/23 06:49:59;;;;;;;10.77;8.32;;;;;;;19.03;62.87;101072.47;5031161;28;20032;-66
2022/06/23 06:52:25;;;;;;;10.50;8.35;;;;;;;19.22;63.11;101065.16;5027784;28;20021;-64
2022/06/23 06:55:03;;;;;;;12.65;8.02;;;;;;;19.28;62.94;101069.69;5037917;28;20025;-63
2022/06/23 06:57:38;;;;;;;11.03;7.60;;;;;;;19.35;61.96;101065.38;5033095;28;20033;-63
2022/06/23 07:00:11;;;;;;;10.18;7.20;;;;;;;19.47;61.76;101068.38;5037173;28;20720;-68
2022/06/23 07:02:39;;;;;;;10.00;6.55;;;;;;;19.57;59.91;101069.78;5043161;28;20057;-63
2022/06/23 07:05:28;;;;;;;10.05;6.82;;;;;;;19.73;60.63;101062.78;5036910;28;20112;-64
2022/06/23 07:08:06;;;;;;;9.77;6.55;;;;;;;19.84;59.84;101073.69;5032426;28;20036;-64
2022/06/23 07:11:05;;;;;;;10.35;6.40;;;;;;;19.96;59.75;101079.31;5031429;28;20078;-65
2022/06/23 07:13:38;;;;;;;9.05;6.50;;;;;;;20.09;58.80;101074.22;5036132;28;20032;-63
2022/06/23 07:16:12;;;;;;;9.40;7.13;;;;;;;20.10;58.71;101069.78;5029301;28;20018;-63
2022/06/23 07:18:44;;;;;;;10.10;6.10;;;;;;;20.37;58.11;101073.59;5041649;28;20090;-65
2022/06/23 07:21:17;;;;;;;11.50;6.65;;;;;;;20.35;58.05;101067.69;5040576;28;20030;-64
2022/06/23 07:23:52;;;;;;;9.30;6.85;;;;;;;20.49;58.20;101072.16;5040390;28;20033;-64
2022/06/23 07:26:33;;;;;;;9.55;7.28;;;;;;;20.62;57.47;101069.66;5038772;28;20493;-64
2022/06/23 07:29:07;;;;;;;9.90;6.90;;;;;;;20.74;57.36;101071.81;5042157;28;20029;-63
2022/06/23 07:31:48;;;;;;;10.38;7.03;;;;;;;20.87;57.96;101066.69;5037307;28;20033;-63
2022/06/23 07:34:16;;;;;;;10.32;7.60;;;;;;;20.95;56.71;101061.31;5043538;28;20029;-69
2022/06/23 07:37:28;;;;;;;11.38;7.35;;;;;;;20.94;57.25;101072.88;5037459;28;20057;-65
2022/06/23 07:40:00;;;;;;;10.15;6.68;;;;;;;21.13;57.35;101069.59;5044910;28;20107;-64
2022/06/23 07:42:40;;;;;;;12.65;6.95;;;;;;;21.24;57.72;101075.38;5030775;28;20033;-64
2022/06/23 07:45:12;;;;;;;12.10;7.53;;;;;;;21.33;56.42;101071.63;5036250;28;20078;-64
2022/06/23 07:47:37;;;;;;;11.55;7.40;;;;;;;21.44;56.15;101068.47;5040864;28;20029;-63
2022/06/23 07:50:03;;;;;;;10.85;7.63;;;;;;;21.60;56.24;101073.50;5027836;28;20029;-64
2022/06/23 07:52:29;;;;;;;11.23;8.05;;;;;;;21.66;55.64;101072.72;5037750;28;20037;-64
2022/06/23 07:54:54;;;;;;;9.68;7.38;;;;;;;21.72;55.20;101066.66;5039875;28;20033;-64
2022/06/23 07:57:20;;;;;;;11.48;7.60;;;;;;;21.77;56.47;101060.81;5046359;28;20029;-64
2022/06/23 07:59:52;;;;;;;8.93;7.00;;;;;;;21.99;55.88;101062.38;5029465;28;20030;-65
2022/06/23 08:02:30;;;;;;;12.43;7.70;;;;;;;22.06;55.04;101065.06;5031445;28;20057;-63
2022/06/23 08:05:03;;;;;;;10.25;7.88;;;;;;;22.08;54.85;101067.50;5030443;28;20033;-64
2022/06/23 08:07:30;;;;;;;10.30;7.32;;;;;;;22.23;54.17;101057.66;5037984;28;20032;-64
2022/06/23 08:09:59;;;;;;;9.48;7.03;;;;;;;22.33;54.20;101062.59;5038153;28;20032;-70
2022/06/23 08:12:53;;;;;;;9.70;6.80;;;;;;;22.51;55.08;101060.22;5037641;28;20029;-64
2022/06/23 08:18:30;;;;;;;12.30;6.80;;;;;;;22.77;54.62;101059.50;5039809;28;20393;-64
2022/06/23 08:21:03;;;;;;;11.20;8.43;;;;;;;22.77;54.41;101062.97;5032448;28;20418;-64
2022/06/23 08:23:33;;;;;;;9.88;6.85;;;;;;;22.94;53.84;101059.94;5035258;28;20021;-64
2022/06/23 08:26:00;;;;;;;10.02;7.35;;;;;;;23.06;53.81;101055.72;5043416;28;20028;-64
2022/06/23 08:28:26;;;;;;;13.10;8.13;;;;;;;23.19;54.16;101063.66;5037726;28;20029;-68
2022/06/23 08:30:51;;;;;;;10.98;8.10;;;;;;;23.08;53.47;101035.16;5032715;28;20044;-64
2022/06/23 08:33:17;;;;;;;8.93;7.65;;;;;;;23.28;53.56;101041.28;5033196;28;20531;-64
2022/06/23 08:35:47;;;;;;;10.40;8.30;;;;;;;23.36;53.28;101044.75;5034066;28;20026;-69
2022/06/23 08:38:24;;;;;;;11.73;8.18;;;;;;;23.43;53.45;101042.91;5035356;28;20017;-66
2022/06/23 08:40:59;;;;;;;10.25;6.63;;;;;;;23.65;53.68;101054.13;5032201;28;20452;-64
2022/06/23 08:43:33;;;;;;;9.63;7.60;;;;;;;23.91;53.59;101055.91;5035673;28;20109;-64
2022/06/23 08:46:25;;;;;;;10.73;7.68;;;;;;;23.80;53.77;101054.72;5027383;28;20029;-66
2022/06/23 08:48:53;;;;;;;12.20;8.25;;;;;;;23.97;53.03;101050.59;5032351;28;20028;-64
2022/06/23 08:51:54;;;;;;;13.07;9.10;;;;;;;24.11;53.55;101043.44;5043608;28;20098;-63
2022/06/23 08:54:42;;;;;;;13.05;9.50;;;;;;;24.33;53.29;101055.38;5043393;28;20488;-64
2022/06/23 08:57:24;;;;;;;11.32;8.70;;;;;;;24.42;52.86;101049.84;5034267;28;20018;-65
2022/06/23 08:59:55;;;;;;;13.02;8.10;;;;;;;24.44;51.54;101050.47;5031544;28;20104;-63
2022/06/23 09:02:30;;;;;;;9.48;7.70;;;;;;;24.55;51.74;101052.47;5043934;28;20139;-64
2022/06/23 09:05:05;;;;;;;14.20;9.18;;;;;;;24.59;52.24;101058.94;5035714;28;20036;-67
2022/06/23 09:08:04;;;;;;;14.63;9.80;;;;;;;24.78;52.38;101052.75;5033439;28;20033;-65
2022/06/23 09:10:48;;;;;;;13.40;9.75;;;;;;;24.89;52.48;101049.41;5028899;28;20036;-66
2022/06/23 09:13:52;;;;;;;11.25;9.55;;;;;;;25.08;52.42;101052.16;5030932;28;20296;-69
2022/06/23 09:16:32;;;;;;;13.32;10.60;;;;;;;25.13;51.26;101049.69;5037004;28;20111;-64
2022/06/23 09:19:15;;;;;;;12.43;10.32;;;;;;;25.19;52.31;101043.50;5038930;28;20103;-67
2022/06/23 09:22:02;;;;;;;15.45;9.95;;;;;;;25.31;52.22;101040.97;5033871;28;20064;-64
2022/06/23 09:24:45;;;;;;;13.45;9.50;;;;;;;25.49;52.71;101042.84;5030668;28;20588;-64
2022/06/23 09:27:37;;;;;;;12.07;10.18;;;;;;;25.52;52.40;101042.41;5028449;28;20029;-66
2022/06/23 09:30:17;;;;;;;10.57;8.85;;;;;;;25.88;51.91;101037.16;5036618;28;20028;-65
2022/06/23 09:33:00;;;;;;;13.05;10.38;;;;;;;25.93;51.25;101034.66;5025125;28;20029;-64
2022/06/23 09:36:04;;;;;;;13.40;10.13;;;;;;;26.01;51.44;101036.22;5037416;28;20043;-64
2022/06/23 09:38:57;;;;;;;13.52;10.18;;;;;;;26.09;51.41;101033.25;5029780;28;20118;-68
2022/06/23 09:41:44;;;;;;;10.73;9.18;;;;;;;26.21;50.11;101030.66;5030548;28;20033;-69
2022/06/23 09:44:31;;;;;;;11.25;9.10;;;;;;;26.42;49.38;101026.72;5036735;28;20362;-63
2022/06/23 09:47:18;;;;;;;11.82;8.80;;;;;;;26.36;50.13;101023.09;5031441;28;20069;-67
2022/06/23 09:50:11;;;;;;;12.07;8.52;;;;;;;26.57;50.03;101023.69;5040243;28;20112;-64
2022/06/23 09:52:51;;;;;;;10.55;8.30;;;;;;;26.60;49.12;101017.88;5042061;28;20111;-65
2022/06/23 09:55:22;;;;;;;12.70;7.95;;;;;;;26.63;49.12;101017.44;5031936;28;20060;-64
2022/06/23 09:58:06;;;;;;;10.60;6.78;;;;;;;26.82;49.59;101024.31;5037810;28;20041;-65
2022/06/23 10:00:31;;;;;;;10.40;7.80;;;;;;;26.88;48.40;101018.09;5033393;28;20461;-66
2022/06/23 10:03:35;;;;;;;12.80;7.00;;;;;;;27.07;48.63;101018.88;5028239;28;20048;-63
2022/06/23 10:06:27;;;;;;;12.98;7.90;;;;;;;27.10;47.97;101018.38;5028974;28;20283;-64
2022/06/23 10:09:34;;;;;;;11.57;6.80;;;;;;;27.37;47.96;101018.75;5025557;28;20108;-63
2022/06/23 10:12:19;;;;;;;18.08;7.30;;;;;;;27.49;47.29;101016.91;5029431;28;20052;-64
2022/06/23 10:15:11;;;;;;;12.60;8.20;;;;;;;27.52;47.18;100999.63;5025998;28;20462;-63
2022/06/23 10:17:50;;;;;;;10.48;7.70;;;;;;;27.71;46.87;101005.69;5036777;28;20024;-63
2022/06/23 10:20:39;;;;;;;11.77;7.88;;;;;;;27.52;46.08;101005.75;5035371;28;20041;-66
2022/06/23 10:23:07;;;;;;;12.23;8.15;;;;;;;27.73;46.45;101008.91;5034116;28;20025;-69
2022/06/23 10:25:46;;;;;;;13.40;7.00;;;;;;;27.79;46.58;100999.97;5027875;28;20469;-64
2022/06/23 10:28:51;;;;;;;13.35;6.65;;;;;;;28.05;46.84;100994.13;5025579;28;20021;-65
2022/06/23 10:31:29;;;;;;;11.40;7.80;;;;;;;28.10;45.57;101000.59;5030127;28;20073;-65
2022/06/23 10:34:20;;;;;;;11.65;7.95;;;;;;;28.16;46.59;100988.97;5026202;28;20494;-72
2022/06/23 10:37:07;;;;;;;11.50;6.45;;;;;;;28.43;45.70;100994.56;5039029;28;20037;-69
2022/06/23 10:39:48;;;;;;;13.00;8.30;;;;;;;28.26;46.08;100989.97;5042255;28;20430;-67
2022/06/23 10:42:41;;;;;;;11.50;7.72;;;;;;;28.45;46.09;100995.97;5042469;28;20436;-68
2022/06/23 10:45:25;;;;;;;14.77;7.82;;;;;;;28.63;45.84;100984.28;5033914;28;20060;-65
2022/06/23 10:48:09;;;;;;;10.65;7.80;;;;;;;28.66;46.06;100977.63;5025347;28;20040;-67
2022/06/23 10:50:52;;;;;;;13.90;8.77;;;;;;;28.66;45.76;100977.63;5031842;28;20039;-69
2022/06/23 10:53:55;;;;;;;11.38;6.47;;;;;;;28.83;46.24;100975.78;5037281;28;20079;-65
2022/06/23 10:56:35;;;;;;;12.02;7.82;;;;;;;28.79;44.48;100972.81;5039774;28;20037;-64
2022/06/23 10:59:07;;;;;;;12.30;8.10;;;;;;;28.89;45.10;100972.13;5030770;28;20017;-65
2022/06/23 11:02:00;;;;;;;13.10;7.88;;;;;;;28.99;45.65;100972.31;5027371;28;20064;-67
2022/06/23 11:05:08;;;;;;;15.50;8.15;;;;;;;28.92;45.48;100950.31;5034044;28;20026;-66
2022/06/23 11:07:36;;;;;;;12.75;6.45;;;;;;;29.00;45.37;100962.44;5039867;28;20028;-65
2022/06/23 11:10:11;;;;;;;13.18;7.22;;;;;;;28.98;44.86;100959.22;5027687;28;20068;-64
2022/06/23 11:13:03;;;;;;;10.68;7.10;;;;;;;29.11;44.99;100956.22;5034127;28;20033;-66
2022/06/23 11:15:48;;;;;;;13.00;7.07;;;;;;;29.04;45.71;100959.06;5030873;28;20123;-65
2022/06/23 11:18:31;;;;;;;12.20;7.03;;;;;;;29.14;44.92;100962.94;5028180;28;20448;-69
2022/06/23 11:21:44;;;;;;;13.77;7.40;;;;;;;29.12;45.64;100954.34;5040908;28;20013;-68
2022/06/23 11:24:31;;;;;;;11.32;5.93;;;;;;;29.32;45.24;100949.31;5023631;28;20084;-66
2022/06/23 11:27:26;;;;;;;11.43;5.40;;;;;;;29.44;46.20;100947.31;5028997;28;20028;-64
2022/06/23 11:30:29;;;;;;;10.30;5.43;;;;;;;29.45;45.12;100943.59;5034382;28;20063;-67
2022/06/23 11:33:14;;;;;;;11.68;4.72;;;;;;;29.52;43.48;100949.59;5030959;28;20045;-67
2022/06/23 11:36:16;;;;;;;8.93;4.35;;;;;;;29.40;43.75;100943.53;5034823;28;20033;-68
2022/06/23 11:38:44;;;;;;;9.70;4.00;;;;;;;29.43;42.97;100940.38;5034145;28;20145;-65
2022/06/23 11:41:12;;;;;;;9.43;3.80;;;;;;;29.56;42.42;100932.00;5028782;28;20029;-64
2022/06/23 11:44:09;;;;;;;8.95;3.97;;;;;;;29.55;43.04;100932.25;5042517;28;20032;-64
2022/06/23 11:46:38;;;;;;;8.98;3.40;;;;;;;29.86;41.76;100933.41;5041984;28;20028;-66
2022/06/23 11:49:09;;;;;;;8.70;3.45;;;;;;;29.88;42.29;100931.31;5034551;28;20474;-68
2022/06/23 11:51:34;;;;;;;12.05;4.00;;;;;;;30.13;41.13;100923.56;5028140;28;20025;-66
2022/06/23 11:54:49;;;;;;;11.20;3.63;;;;;;;30.21;41.65;100930.31;5038261;28;20017;-66
2022/06/23 11:57:26;;;;;;;10.57;3.53;;;;;;;30.10;40.74;100926.72;5033487;28;20759;-65
2022/06/23 12:00:11;;;;;;;10.85;3.80;;;;;;;30.05;42.07;100921.34;5032388;28;20408;-64
2022/06/23 12:03:14;;;;;;;9.98;3.53;;;;;;;30.26;41.71;100913.53;5030151;28;20091;-66
2022/06/23 12:06:04;;;;;;;8.75;3.05;;;;;;;30.37;40.98;100917.91;5038617;28;20037;-65
2022/06/23 12:08:48;;;;;;;8.45;2.97;;;;;;;30.61;40.25;100924.53;5038817;28;20031;-66
2022/06/23 12:11:13;;;;;;;8.68;3.45;;;;;;;30.66;38.80;100921.88;5027003;28;20397;-70
2022/06/23 12:13:39;;;;;;;9.07;3.50;;;;;;;30.58;38.75;100925.03;5041771;28;20032;-65